Have a Safe July 4th! 

Flight Track Log - Related Links

Times and Time Zones

All times are in EDT time to prevent confusion due to time zone crossing. See the SWA559 flight status page for this flight to view local times or setup timezone preferences in your user account.

Time Position Orientation Groundspeed Altitude Reporting Facility
EDT Latitude Longitude Course Direction KTS MPH feet Rate Location/Type
Tue 09:04:11 PM 36.0733 -115.1158 86° East 141 162 3,300  Level Los Angeles Center
Tue 09:04:42 PM 36.0750 -115.0833 86° East 187 215 3,900 1,826 Climbing Los Angeles Center
Tue 09:05:43 PM 36.0753 -114.9956 90° East 254 292 6,100 1,898 Climbing Los Angeles Center
Tue 09:06:20 PM 36.0750 -114.9494 90° East 261 300 7,000 2,000 Climbing Los Angeles Center
Tue 09:06:37 PM 36.0825 -114.9106 77° East 268 308 7,900 2,459 Climbing Los Angeles Center
Tue 09:07:21 PM 36.0906 -114.8544 80° East 279 321 9,500 1,868 Climbing Los Angeles Center
Tue 09:08:23 PM 36.1108 -114.7447 77° East 320 368 11,200 2,806 Climbing Los Angeles Center
Tue 09:09:25 PM 36.1358 -114.5939 78° East 369 425 15,300 3,387 Climbing Los Angeles Center
Tue 09:10:27 PM 36.1553 -114.4664 79° East 375 432 18,200 2,537 Climbing Los Angeles Center
Tue 09:11:28 PM 36.1778 -114.3350 78° East 385 443 20,500 2,195 Climbing Los Angeles Center
Tue 09:12:30 PM 36.2000 -114.1947 79° East 406 467 22,700 2,129 Climbing Los Angeles Center
Tue 09:13:32 PM 36.2161 -114.0517 82° East 417 480 24,900 2,032 Climbing Los Angeles Center
Tue 09:14:34 PM 36.2325 -113.9058 82° East 424 488 26,900 1,756 Climbing Los Angeles Center
Tue 09:15:35 PM 36.2508 -113.7578 81° East 431 496 28,500 1,805 Climbing Los Angeles Center
Tue 09:16:37 PM 36.2711 -113.5786 82° East 438 504 30,600 1,548 Climbing Los Angeles Center
Tue 09:17:39 PM 36.2886 -113.4294 82° East 438 504 31,700 1,210 Climbing Los Angeles Center
Tue 09:18:41 PM 36.3050 -113.2744 82° East 448 516 33,100 1,258 Climbing Los Angeles Center
Tue 09:19:43 PM 36.3494 -113.1203 70° East 443 510 34,300 976 Climbing Los Angeles Center
Tue 09:20:44 PM 36.4011 -112.9850 65° Northeast 437 503 35,100 829 Climbing Los Angeles Center
Tue 09:21:46 PM 36.4478 -112.8408 68° East 448 516 36,000 919 Climbing Los Angeles Center
Tue 09:22:48 PM 36.4931 -112.6958 69° East 453 521 37,000 484 Climbing Los Angeles Center
Tue 09:23:50 PM 36.5378 -112.5528 69° East 449 517 37,000  Level Los Angeles Center
Tue 09:24:52 PM 36.5828 -112.4086 69° East 450 518 37,000  Level Los Angeles Center
Tue 09:25:53 PM 36.6358 -112.2364 69° East 448 516 37,000  Level Los Angeles Center
Tue 09:26:55 PM 36.6714 -112.1225 69° East 446 513 37,000  Level Los Angeles Center
Tue 09:27:57 PM 36.7247 -111.9508 69° East 446 513 37,000  Level Los Angeles Center
Tue 09:29:02 PM 36.7683 -111.8081 69° East 443 510 37,000  Level Denver Center
Tue 09:30:03 PM 36.8225 -111.6367 68° East 444 511 37,000  Level Denver Center
Tue 09:31:05 PM 36.8658 -111.4942 69° East 443 510 37,000  Level Denver Center
Tue 09:32:06 PM 36.9086 -111.3522 69° East 440 506 37,000  Level Denver Center
Tue 09:33:08 PM 36.9486 -111.2111 70° East 438 504 37,000  Level Denver Center
Tue 09:34:09 PM 36.9922 -111.0650 69° East 447 514 37,000  Level Denver Center
Tue 09:35:11 PM 37.0347 -110.9186 70° East 450 518 37,000  Level Denver Center
Tue 09:36:12 PM 37.0786 -110.7717 69° East 452 520 37,000  Level Denver Center
Tue 09:37:14 PM 37.1217 -110.6242 70° East 453 521 37,000  Level Denver Center
Tue 09:38:15 PM 37.1739 -110.4481 70° East 451 519 37,000  Level Denver Center
Tue 09:39:17 PM 37.2161 -110.3008 70° East 450 518 37,000  Level Denver Center
Tue 09:40:18 PM 37.2603 -110.1456 70° East 450 518 37,000  Level Denver Center
Tue 09:41:20 PM 37.3008 -110.0044 70° East 451 519 37,000  Level Denver Center
Tue 09:42:21 PM 37.3419 -109.8614 70° East 454 522 37,000  Level Denver Center
Tue 09:43:23 PM 37.3883 -109.6950 71° East 454 522 37,000  Level Denver Center
Tue 09:44:24 PM 37.4294 -109.5517 70° East 455 524 37,000  Level Denver Center
Tue 09:45:26 PM 37.4758 -109.3853 71° East 451 519 37,000  Level Denver Center
Tue 09:46:27 PM 37.5161 -109.2414 71° East 455 524 37,000  Level Denver Center
Tue 09:47:29 PM 37.5564 -109.0958 71° East 458 527 37,000  Level Denver Center
Tue 09:48:30 PM 37.6028 -108.9281 71° East 455 524 37,000  Level Denver Center
Tue 09:49:31 PM 37.6422 -108.7819 71° East 458 527 37,000  Level Denver Center
Tue 09:50:45 PM 37.6953 -108.5869 71° East 458 527 37,000  Level Denver Center
Tue 09:51:47 PM 37.7342 -108.4408 71° East 458 527 37,000  Level Denver Center
Tue 09:52:48 PM 37.7803 -108.2714 71° East 457 526 37,000  Level Denver Center
Tue 09:53:50 PM 37.8200 -108.1256 71° East 458 527 37,000  Level Denver Center
Tue 09:54:51 PM 37.8653 -107.9517 72° East 463 533 37,000  Level Denver Center
Tue 09:55:53 PM 37.9047 -107.8031 71° East 466 536 37,000  Level Denver Center
Tue 09:56:54 PM 37.9439 -107.6528 72° East 468 539 37,000  Level Denver Center
Tue 09:57:55 PM 37.9903 -107.4772 71° East 472 543 37,000  Level Denver Center
Tue 09:58:57 PM 38.0292 -107.3261 72° East 472 543 37,000  Level Denver Center
Tue 09:59:58 PM 38.0711 -107.1636 72° East 471 542 37,000  Level Denver Center
Tue 10:01:00 PM 38.1100 -107.0103 72° East 467 537 37,000  Level Denver Center
Tue 10:02:01 PM 38.1536 -106.8378 72° East 469 540 37,000  Level Denver Center
Tue 10:03:03 PM 38.1917 -106.6889 72° East 465 535 37,000  Level Denver Center
Tue 10:04:04 PM 38.2344 -106.5144 73° East 462 532 37,000  Level Denver Center
Tue 10:05:06 PM 38.2747 -106.3542 72° East 463 533 37,000  Level Denver Center
Tue 10:06:07 PM 38.3133 -106.1981 72° East 462 532 37,000  Level Denver Center
Tue 10:07:09 PM 38.3519 -106.0394 73° East 466 536 37,000  Level Denver Center
Tue 10:08:10 PM 38.3883 -105.8875 73° East 467 537 37,000  Level Denver Center
Tue 10:09:12 PM 38.4300 -105.7181 73° East 467 537 37,000  Level Denver Center
Tue 10:10:13 PM 38.4678 -105.5564 73° East 472 543 37,000  Level Denver Center
Tue 10:11:14 PM 38.5069 -105.3961 73° East 472 543 37,000  Level Denver Center
Tue 10:12:16 PM 38.5458 -105.2331 73° East 475 547 37,000  Level Denver Center
Tue 10:13:17 PM 38.5842 -105.0717 73° East 474 545 37,000  Level Denver Center
Tue 10:14:19 PM 38.6222 -104.9094 73° East 473 544 37,000  Level Denver Center
Tue 10:15:20 PM 38.6661 -104.7208 73° East 472 543 37,000  Level Denver Center
Tue 10:16:21 PM 38.7042 -104.5578 73° East 475 547 37,000  Level Denver Center
Tue 10:17:23 PM 38.7417 -104.3939 74° East 478 550 37,000  Level Denver Center
Tue 10:18:24 PM 38.7789 -104.2325 73° East 474 545 37,000  Level Denver Center
Tue 10:19:38 PM 38.8175 -104.0592 74° East 473 544 37,000  Level Denver Center
Tue 10:20:39 PM 38.8583 -103.8781 74° East 474 545 37,000  Level Denver Center
Tue 10:21:41 PM 38.8936 -103.7156 74° East 471 542 37,000  Level Denver Center
Tue 10:22:42 PM 38.9311 -103.5517 74° East 474 545 37,000  Level Denver Center
Tue 10:23:43 PM 38.9653 -103.3883 75° East 471 542 37,000  Level Denver Center
Tue 10:24:45 PM 39.0081 -103.1972 74° East 473 544 37,000  Level Denver Center
Tue 10:25:46 PM 39.0417 -103.0353 75° East 467 537 37,000  Level Denver Center
Tue 10:26:47 PM 39.0769 -102.8717 74° East 469 540 37,000  Level Denver Center
Tue 10:27:49 PM 39.1106 -102.7108 75° East 471 542 37,000  Level Denver Center
Tue 10:28:50 PM 39.1447 -102.5542 74° East 474 545 37,000  Level Denver Center
Tue 10:29:51 PM 39.1831 -102.3717 75° East 475 547 37,000  Level Denver Center
Tue 10:30:53 PM 39.2150 -102.2125 75° East 479 551 37,000  Level Denver Center
Tue 10:31:54 PM 39.2486 -102.0561 74° East 473 544 37,000  Level Denver Center
Tue 10:32:55 PM 39.2856 -101.8714 75° East 476 548 37,000  Level Denver Center
Tue 10:33:57 PM 39.3208 -101.6994 75° East 480 552 37,000  Level Denver Center
Tue 10:34:58 PM 39.3533 -101.5411 75° East 479 551 37,000  Level Denver Center
Tue 10:35:59 PM 39.3900 -101.3572 75° East 474 545 37,000  Level Denver Center
Tue 10:37:01 PM 39.4206 -101.2036 76° East 464 534 37,000  Level Denver Center
Tue 10:38:02 PM 39.4506 -101.0492 76° East 462 532 37,000  Level Denver Center
Tue 10:39:03 PM 39.4847 -100.8678 76° East 465 535 37,000  Level Denver Center
Tue 10:40:04 PM 39.5147 -100.7150 76° East 460 529 37,000  Level Denver Center
Tue 10:41:06 PM 39.5486 -100.5331 76° East 465 535 37,000  Level Denver Center
Tue 10:42:07 PM 39.5781 -100.3808 76° East 460 529 37,000  Level Denver Center
Tue 10:43:08 PM 39.6078 -100.2261 76° East 463 533 37,000  Level Denver Center
Tue 10:44:10 PM 39.6411 -100.0472 76° East 460 529 37,000  Level Denver Center
Tue 10:45:11 PM 39.6708 -99.8822 77° East 466 536 37,000  Level Denver Center
Tue 10:46:12 PM 39.7019 -99.7192 76° East 466 536 37,000  Level Denver Center
Tue 10:47:14 PM 39.7319 -99.5531 77° East 471 542 37,000  Level Denver Center
Tue 10:48:15 PM 39.7617 -99.3878 77° East 471 542 37,000  Level Denver Center
Tue 10:49:16 PM 39.7917 -99.2225 77° East 471 542 37,000  Level Denver Center
Tue 10:50:18 PM 39.8197 -99.0603 77° East 462 532 37,000  Level Denver Center
Tue 10:51:19 PM 39.8539 -98.8675 77° East 456 525 37,000  Level Denver Center
Tue 10:52:13 PM 39.8753 -98.7386 78° East 457 526 37,000  Level Minneapolis Center
Tue 10:53:14 PM 39.9206 -98.5839 69° East 462 532 37,000  Level Minneapolis Center
Tue 10:54:16 PM 39.9972 -98.4383 55° Northeast 483 556 37,000  Level Minneapolis Center
Tue 10:55:17 PM 40.0736 -98.2958 55° Northeast 482 555 37,000  Level Minneapolis Center
Tue 10:56:18 PM 40.1519 -98.1489 55° Northeast 490 564 37,000  Level Minneapolis Center
Tue 10:57:19 PM 40.2453 -97.9714 55° Northeast 494 568 37,000  Level Minneapolis Center
Tue 10:58:20 PM 40.3225 -97.8233 56° Northeast 494 568 37,000  Level Minneapolis Center
Tue 10:59:22 PM 40.3953 -97.6722 58° Northeast 493 567 37,000  Level Minneapolis Center
Tue 11:00:23 PM 40.4656 -97.5194 59° Northeast 491 565 37,000  Level Minneapolis Center
Tue 11:01:24 PM 40.5358 -97.3686 58° Northeast 486 559 37,000  Level Minneapolis Center
Tue 11:02:25 PM 40.6025 -97.2186 60° Northeast 489 563 37,000  Level Minneapolis Center
Tue 11:03:27 PM 40.6486 -97.0539 70° East 481 554 37,000  Level Minneapolis Center
Tue 11:04:28 PM 40.6642 -96.8783 83° East 482 555 37,000  Level Minneapolis Center
Tue 11:05:29 PM 40.6772 -96.7036 84° East 481 554 37,000  Level Minneapolis Center
Tue 11:06:30 PM 40.6917 -96.5078 84° East 456 525 37,000  Level Minneapolis Center
Tue 11:07:32 PM 40.7033 -96.3469 84° East 446 513 37,000  Level Minneapolis Center
Tue 11:08:33 PM 40.7153 -96.1878 84° East 441 507 37,000  Level Minneapolis Center
Tue 11:09:34 PM 40.7267 -96.0267 85° East 444 511 37,000  Level Minneapolis Center
Tue 11:10:35 PM 40.7386 -95.8603 85° East 453 521 37,000  Level Minneapolis Center
Tue 11:11:36 PM 40.7494 -95.6931 85° East 460 529 37,000  Level Minneapolis Center
Tue 11:12:38 PM 40.7608 -95.5242 85° East 464 534 37,000  Level Minneapolis Center
Tue 11:13:39 PM 40.7733 -95.3556 84° East 464 534 37,000  Level Minneapolis Center
Tue 11:14:40 PM 40.7856 -95.1547 85° East 461 531 37,000  Level Minneapolis Center
Tue 11:15:41 PM 40.7964 -94.9869 85° East 461 531 37,000  Level Minneapolis Center
Tue 11:16:43 PM 40.8064 -94.8181 85° East 462 532 37,000  Level Minneapolis Center
Tue 11:17:44 PM 40.8156 -94.6494 86° East 462 532 37,000  Level Minneapolis Center
Tue 11:18:45 PM 40.8239 -94.4911 86° East 462 532 37,000  Level Minneapolis Center
Tue 11:19:46 PM 40.8317 -94.3233 86° East 463 533 37,000  Level Minneapolis Center
Tue 11:20:48 PM 40.8411 -94.1539 86° East 464 534 37,000  Level Minneapolis Center
Tue 11:21:49 PM 40.8536 -93.9492 85° East 470 541 37,000  Level Minneapolis Center
Tue 11:22:50 PM 40.8619 -93.7803 86° East 466 536 37,000  Level Minneapolis Center
Tue 11:23:51 PM 40.8706 -93.6114 86° East 465 535 37,000  Level Minneapolis Center
Tue 11:24:53 PM 40.8789 -93.4411 86° East 465 535 37,000  Level Minneapolis Center
Tue 11:26:06 PM 40.8875 -93.2711 86° East 466 536 37,000  Level Minneapolis Center
Tue 11:27:07 PM 40.8972 -93.0658 86° East 468 539 37,000  Level Minneapolis Center
Tue 11:28:09 PM 40.9044 -92.8972 87° East 465 535 37,000  Level Minneapolis Center
Tue 11:28:44 PM 40.9092 -92.7958 86° East 460 529 37,000  Level Chicago Center
Tue 11:29:45 PM 40.9153 -92.6269 87° East 461 531 37,000  Level Chicago Center
Tue 11:30:47 PM 40.9231 -92.4575 86° East 462 532 37,000  Level Chicago Center
Tue 11:31:48 PM 40.9311 -92.2525 87° East 466 536 37,000  Level Chicago Center
Tue 11:32:49 PM 40.9381 -92.0811 87° East 469 540 37,000  Level Chicago Center
Tue 11:33:50 PM 40.9428 -91.9086 88° East 471 542 37,000  Level Chicago Center
Tue 11:34:51 PM 40.9492 -91.7356 87° East 473 544 37,000  Level Chicago Center
Tue 11:35:53 PM 40.9544 -91.5619 88° East 475 547 37,000  Level Chicago Center
Tue 11:36:54 PM 40.9600 -91.3892 88° East 475 547 37,000  Level Chicago Center
Tue 11:37:55 PM 40.9661 -91.1953 88° East 472 543 37,000  Level Chicago Center
Tue 11:38:56 PM 40.9706 -91.0225 88° East 470 541 37,000  Level Chicago Center
Tue 11:39:57 PM 40.9750 -90.8483 88° East 473 544 37,000  Level Chicago Center
Tue 11:40:58 PM 40.9800 -90.6742 88° East 473 544 37,000  Level Chicago Center
Tue 11:41:59 PM 40.9831 -90.5000 89° East 471 542 37,000  Level Chicago Center
Tue 11:43:00 PM 40.9869 -90.3239 88° East 475 547 37,000  Level Chicago Center
Tue 11:44:01 PM 40.9908 -90.1603 88° East 477 549 37,000  Level Chicago Center
Tue 11:45:02 PM 40.9942 -89.9508 89° East 476 548 37,000  Level Chicago Center
Tue 11:46:03 PM 40.9981 -89.7761 88° East 478 550 37,000  Level Chicago Center
Tue 11:47:05 PM 40.9994 -89.6014 89° East 478 550 37,000  Level Chicago Center
Tue 11:48:06 PM 41.0025 -89.4356 89° East 480 552 37,000  Level Chicago Center
Tue 11:49:07 PM 41.0047 -89.2589 89° East 479 551 37,000  Level Chicago Center
Tue 11:50:08 PM 41.0061 -89.0753 89° East 482 555 37,000  Level Chicago Center
Tue 11:51:09 PM 41.0067 -88.9011 90° East 479 551 37,000  Level Chicago Center
Tue 11:52:10 PM 41.0086 -88.7272 89° East 477 549 37,000  Level Chicago Center
Tue 11:53:11 PM 41.0100 -88.5522 89° East 480 552 37,000  Level Chicago Center
Tue 11:54:12 PM 41.0100 -88.3394 90° East 484 557 37,000  Level Chicago Center
Tue 11:55:13 PM 41.0111 -88.1622 89° East 488 562 37,000  Level Chicago Center
Tue 11:56:13 PM 41.0111 -87.9861 90° East 486 559 37,000  Level Chicago Center
Tue 11:57:14 PM 41.0122 -87.8092 89° East 486 559 37,000  Level Chicago Center
Tue 11:58:15 PM 41.0117 -87.6322 90° East 487 560 37,000  Level Chicago Center
Tue 11:59:16 PM 41.0119 -87.4544 90° East 487 560 37,000  Level Chicago Center
Wed 12:00:17 AM 41.0106 -87.2761 91° East 488 562 37,000  Level Chicago Center
Wed 12:01:18 AM 41.0100 -87.0631 90° East 488 562 37,000  Level Chicago Center
Wed 12:02:19 AM 41.0075 -86.8861 91° East 485 558 37,000  Level Chicago Center
Wed 12:03:20 AM 41.0050 -86.7317 91° East 488 562 37,000  Level Chicago Center
Wed 12:04:21 AM 41.0039 -86.5514 90° East 491 565 37,000  Level Chicago Center
Wed 12:05:22 AM 41.0119 -86.3731 87° East 489 563 37,000  Level Chicago Center
Wed 12:06:22 AM 41.0206 -86.1561 87° East 493 567 37,000  Level Chicago Center
Wed 12:07:23 AM 41.0272 -85.9772 87° East 491 565 37,000  Level Chicago Center
Wed 12:08:24 AM 41.0336 -85.7989 87° East 489 563 37,000  Level Chicago Center
Wed 12:09:25 AM 41.0397 -85.6200 87° East 489 563 37,000  Level Chicago Center
Wed 12:10:26 AM 41.0447 -85.4453 88° East 482 555 37,000  Level Chicago Center
Wed 12:11:26 AM 41.0506 -85.2697 87° East 482 555 37,000  Level Chicago Center
Wed 12:12:27 AM 41.0558 -85.0939 88° East 482 555 37,000  Level Chicago Center
Wed 12:13:28 AM 41.0600 -84.9203 88° East 478 550 37,000  Level Chicago Center
Wed 12:14:29 AM 41.0642 -84.7456 88° East 477 549 37,000  Level Chicago Center
Wed 12:15:20 AM 41.0714 -84.5633 87° East 477 549 37,000  Level Cleveland Center
Wed 12:16:20 AM 41.0625 -84.3894 94° East 477 549 37,000  Level Cleveland Center
Wed 12:17:20 AM 41.0433 -84.2147 98° East 477 549 37,000  Level Cleveland Center
Wed 12:18:20 AM 41.0217 -84.0372 99° East 483 556 37,000  Level Cleveland Center
Wed 12:19:20 AM 41.0017 -83.8656 99° East 483 556 37,000  Level Cleveland Center
Wed 12:20:20 AM 40.9794 -83.6911 100° East 478 550 37,000  Level Cleveland Center
Wed 12:21:20 AM 40.9608 -83.5364 99° East 478 550 37,000  Level Cleveland Center
Wed 12:22:20 AM 40.9381 -83.3619 100° East 478 550 37,000  Level Cleveland Center
Wed 12:23:20 AM 40.9150 -83.1853 100° East 478 550 37,000  Level Cleveland Center
Wed 12:24:20 AM 40.8897 -83.0139 101° East 478 550 37,000  Level Cleveland Center
Wed 12:25:20 AM 40.8681 -82.8428 99° East 478 550 37,000 -300 Level Cleveland Center
Wed 12:26:20 AM 40.8444 -82.6664 100° East 478 550 36,400 -1,650 Descending Cleveland Center
Wed 12:27:20 AM 40.8225 -82.4956 100° East 478 550 33,700 -2,850 Descending Cleveland Center
Wed 12:28:20 AM 40.7961 -82.3219 101° East 478 550 30,700 -2,650 Descending Cleveland Center
Wed 12:29:20 AM 40.7736 -82.1486 100° East 478 550 28,400 -2,300 Descending Cleveland Center
Wed 12:30:20 AM 40.7506 -81.9836 100° East 460 529 26,100 -2,250 Descending Cleveland Center
Wed 12:31:20 AM 40.7275 -81.8242 101° East 455 524 23,900 -2,150 Descending Cleveland Center
Wed 12:32:20 AM 40.7061 -81.6650 100° East 444 511 21,800 -2,050 Descending Cleveland Center
Wed 12:33:20 AM 40.6806 -81.5031 102° East 430 495 19,800 -2,000 Descending Cleveland Center
Wed 12:34:20 AM 40.6608 -81.3578 100° East 410 472 17,800 -2,000 Descending Cleveland Center
Wed 12:35:20 AM 40.6386 -81.2125 101° East 405 466 15,800 -2,000 Descending Cleveland Center
Wed 12:36:20 AM 40.6186 -81.0728 101° East 394 453 13,800 -1,900 Descending Cleveland Center
Wed 12:37:20 AM 40.6022 -80.9494 100° East 389 448 12,000 -1,500 Descending Cleveland Center
Wed 12:38:20 AM 40.5881 -80.8156 98° East 383 441 10,800 -1,350 Descending Cleveland Center
Wed 12:39:20 AM 40.5861 -80.6869 91° East 365 420 9,300 -1,400 Descending Cleveland Center
Wed 12:40:20 AM 40.5819 -80.5586 92° East 351 404 8,000 -1,300 Descending Cleveland Center
Wed 12:41:20 AM 40.5778 -80.4436 93° East 335 386 6,700 -1,212 Descending Cleveland Center
Wed 12:41:59 AM 40.5756 -80.3639 92° East 301 346 6,000 -712 Descending FAA TRACON SMA TRACON (SMA)
Wed 12:42:19 AM 40.5747 -80.3317 92° East 281 323 6,000  Level FAA TRACON SMA TRACON (SMA)
Wed 12:42:39 AM 40.5747 -80.2967 90° East 269 310 6,000 -150 Level FAA TRACON SMA TRACON (SMA)
Wed 12:42:59 AM 40.5731 -80.2636 94° East 262 302 5,900 -585 Descending FAA TRACON SMA TRACON (SMA)
Wed 12:43:20 AM 40.5722 -80.2344 92° East 254 292 5,600 -1,050 Descending FAA TRACON SMA TRACON (SMA)
Wed 12:43:39 AM 40.5703 -80.2011 94° East 251 289 5,200 -1,077 Descending FAA TRACON SMA TRACON (SMA)
Wed 12:43:59 AM 40.5706 -80.1708 89° East 249 287 4,900 -750 Descending FAA TRACON SMA TRACON (SMA)
Wed 12:44:19 AM 40.5700 -80.1442 92° East 235 270 4,700 -600 Descending FAA TRACON SMA TRACON (SMA)
Wed 12:44:39 AM 40.5697 -80.1131 91° East 219 252 4,500 -585 Descending FAA TRACON SMA TRACON (SMA)
Wed 12:45:00 AM 40.5689 -80.0892 93° East 212 244 4,300 -750 Descending FAA TRACON SMA TRACON (SMA)
Wed 12:45:19 AM 40.5678 -80.0697 94° East 209 241 4,000 -1,231 Descending FAA TRACON SMA TRACON (SMA)
Wed 12:45:39 AM 40.5506 -80.0572 151° Southeast 147 169 3,500 -1,317 Descending FAA TRACON SMA TRACON (SMA)
Wed 12:46:00 AM 40.5389 -80.0578 182° South 136 157 3,100 -750 Descending FAA TRACON SMA TRACON (SMA)
Wed 12:46:19 AM 40.5311 -80.0644 213° Southwest 116 133 3,000 -140 Descending FAA TRACON SMA TRACON (SMA)
Wed 12:46:43 AM 40.5189 -80.0731 208° Southwest 114 131 3,000  Level FAA TRACON SMA TRACON (SMA)
Wed 12:47:02 AM 40.5083 -80.0822 213° Southwest 115 132 3,000  Level FAA TRACON SMA TRACON (SMA)
Wed 12:47:19 AM 40.5031 -80.0881 220° Southwest 115 132 3,000  Level FAA TRACON SMA TRACON (SMA)
Wed 12:47:40 AM 40.4983 -80.1022 246° West 109 125 3,000 -150 Level FAA TRACON SMA TRACON (SMA)
Wed 12:47:59 AM 40.4975 -80.1142 265° West 108 124 2,900 -450 Descending FAA TRACON SMA TRACON (SMA)
Wed 12:48:20 AM 40.4978 -80.1267 272° West 108 124 2,700 -600 Descending FAA TRACON SMA TRACON (SMA)
Wed 12:48:39 AM 40.4981 -80.1406 272° West 108 124 2,500 -615 Descending FAA TRACON SMA TRACON (SMA)
Wed 12:48:59 AM 40.4986 -80.1539 273° West 108 124 2,300 -439 Descending FAA TRACON SMA TRACON (SMA)
Wed 12:49:20 AM 40.4989 -80.1658 272° West 108 124 2,200 -600 Descending FAA TRACON SMA TRACON (SMA)
Wed 12:49:39 AM 40.4994 -80.1800 273° West 111 128 1,900 -750 Descending FAA TRACON SMA TRACON (SMA)
Wed 12:50:00 AM 40.5000 -80.1950 273° West 115 132 1,700 -600 Descending FAA TRACON SMA TRACON (SMA)
Wed 12:50:19 AM 40.5006 -80.2089 273° West 120 138 1,500 -632 Descending FAA TRACON SMA TRACON (SMA)

Login

Don't have an account? Register now (free) for customized features, flight alerts, and more!